createdAt,value
2023-02-06T00:03:25.239Z,99973.56
2023-02-06T00:07:27.273Z,99973.50
2023-02-06T00:11:29.350Z,99966.34
2023-02-06T00:15:31.563Z,99962.91
2023-02-06T00:19:33.572Z,99970.88
2023-02-06T00:23:35.683Z,99959.41
2023-02-06T00:27:37.822Z,99964.97
2023-02-06T00:31:39.971Z,99980.91
2023-02-06T00:35:42.344Z,99985.16
2023-02-06T00:39:44.395Z,99989.56
2023-02-06T00:43:46.417Z,99991.00
2023-02-06T00:47:48.605Z,99992.97
2023-02-06T00:51:50.887Z,99988.06
2023-02-06T00:55:53.090Z,99996.13
2023-02-06T00:59:57.117Z,100008.16
2023-02-06T01:04:01.854Z,100019.56
2023-02-06T01:08:04.620Z,100011.88
2023-02-06T01:12:07.713Z,100012.53
2023-02-06T01:16:11.015Z,100018.00
2023-02-06T01:20:13.602Z,100008.63
2023-02-06T01:24:15.778Z,100005.31
2023-02-06T01:28:19.105Z,100006.59
2023-02-06T01:32:22.194Z,100003.66
2023-02-06T01:36:25.108Z,100014.84
2023-02-06T01:40:28.390Z,100015.13
2023-02-06T01:44:33.407Z,100016.47
2023-02-06T01:48:35.602Z,100030.53
2023-02-06T01:52:38.730Z,100023.00
2023-02-06T01:56:43.825Z,100021.03
2023-02-06T02:00:47.904Z,100021.22
2023-02-06T02:04:49.955Z,100017.09
2023-02-06T02:08:54.257Z,100025.44
2023-02-06T02:12:56.478Z,100021.00
2023-02-06T02:16:58.649Z,100015.75
2023-02-06T02:21:18.917Z,100008.22
2023-02-06T02:25:39.967Z,100016.41
2023-02-06T02:30:04.014Z,100011.22
2023-02-06T02:34:13.158Z,100015.97
2023-02-06T02:38:30.104Z,100009.09
2023-02-06T02:42:37.504Z,100001.03
2023-02-06T02:46:46.967Z,100016.84
2023-02-06T02:50:49.298Z,100011.75
2023-02-06T02:54:51.443Z,100017.16
2023-02-06T02:58:55.347Z,100017.94
2023-02-06T03:02:57.741Z,100023.84
2023-02-06T03:07:07.011Z,100022.75
2023-02-06T03:11:09.158Z,100025.19
2023-02-06T03:15:25.030Z,100025.66
2023-02-06T03:19:39.785Z,100022.09
2023-02-06T03:23:43.206Z,100023.75
2023-02-06T03:27:45.786Z,100028.22
2023-02-06T03:31:50.112Z,100029.03
2023-02-06T03:35:52.920Z,100038.41
2023-02-06T03:39:58.859Z,100026.41
2023-02-06T03:44:03.341Z,100026.91
2023-02-06T03:48:08.936Z,100025.75
2023-02-06T03:52:13.848Z,100035.94
2023-02-06T03:56:19.939Z,100029.84
2023-02-06T04:00:22.256Z,100034.44
2023-02-06T04:04:38.162Z,100032.00
2023-02-06T04:08:40.244Z,100025.94
2023-02-06T04:12:42.284Z,100032.00
2023-02-06T04:16:44.386Z,100036.25
2023-02-06T04:20:46.778Z,100035.22
2023-02-06T04:24:49.187Z,100030.63
2023-02-06T04:28:51.703Z,100038.03
2023-02-06T04:32:53.784Z,100029.97
2023-02-06T04:36:56.097Z,100035.56
2023-02-06T04:41:02.419Z,100036.84
2023-02-06T04:45:06.442Z,100032.59
2023-02-06T04:49:08.508Z,100048.66
2023-02-06T04:53:11.023Z,100038.66
2023-02-06T04:57:13.133Z,100045.91
2023-02-06T05:01:17.142Z,100038.53
2023-02-06T05:05:19.487Z,100032.81
2023-02-06T05:09:21.693Z,100042.66
2023-02-06T05:13:24.144Z,100035.44
2023-02-06T05:17:26.762Z,100041.66
2023-02-06T05:21:28.845Z,100038.72
2023-02-06T05:25:30.864Z,100033.47
2023-02-06T05:29:32.872Z,100031.66
2023-02-06T05:33:35.545Z,100025.06
2023-02-06T05:37:40.878Z,100040.34
2023-02-06T05:41:43.267Z,100033.28
2023-02-06T05:45:45.414Z,100018.34
2023-02-06T05:49:48.474Z,100030.66
2023-02-06T05:53:50.926Z,100029.03
2023-02-06T05:57:56.123Z,100039.34
2023-02-06T06:01:58.862Z,100050.00
2023-02-06T06:06:01.089Z,100052.66
2023-02-06T06:10:03.415Z,100047.38
2023-02-06T06:18:45.430Z,100059.38
2023-02-06T06:22:47.829Z,100061.66
2023-02-06T06:26:49.827Z,100060.84
2023-02-06T06:31:00.075Z,100070.00
2023-02-06T06:35:02.261Z,100071.34
2023-02-06T06:39:04.372Z,100073.63
2023-02-06T06:43:06.402Z,100076.75
2023-02-06T06:47:08.348Z,100072.81
2023-02-06T06:51:10.485Z,100073.00
2023-02-06T06:55:12.850Z,100072.97
2023-02-06T06:59:16.292Z,100075.59
2023-02-06T07:03:22.374Z,100074.09
2023-02-06T07:07:24.435Z,100089.19
2023-02-06T07:11:26.915Z,100083.47
2023-02-06T07:15:29.088Z,100077.53
2023-02-06T07:19:31.175Z,100083.59
2023-02-06T07:23:33.173Z,100069.31
2023-02-06T07:27:35.215Z,100069.47
2023-02-06T07:31:37.356Z,100072.44
2023-02-06T07:35:39.369Z,100069.47
2023-02-06T07:39:41.421Z,100064.69
2023-02-06T07:43:43.829Z,100061.03
2023-02-06T07:47:46.089Z,100054.59
2023-02-06T07:51:48.187Z,100068.88
2023-02-06T07:55:50.575Z,100079.16
2023-02-06T07:59:52.569Z,100068.41
2023-02-06T08:03:55.375Z,100073.00
2023-02-06T08:07:57.636Z,100070.66
2023-02-06T08:11:59.648Z,100079.34
2023-02-06T08:16:10.269Z,100066.75
2023-02-06T08:20:12.640Z,100069.81
2023-02-06T08:24:14.743Z,100058.75
2023-02-06T08:28:17.206Z,100065.91
2023-02-06T08:32:19.255Z,100069.59
2023-02-06T08:36:22.526Z,100062.97
2023-02-06T08:40:24.555Z,100077.06
2023-02-06T08:44:26.567Z,100062.28
2023-02-06T08:48:28.707Z,100066.75
2023-02-06T08:52:30.848Z,100066.13
2023-02-06T08:56:33.592Z,100049.38
2023-02-06T09:00:36.275Z,100066.47
2023-02-06T09:04:39.202Z,100070.09
2023-02-06T09:08:41.871Z,100072.19
2023-02-06T09:12:44.009Z,100075.94
2023-02-06T09:16:46.162Z,100082.47
2023-02-06T09:20:49.847Z,100079.31
2023-02-06T09:24:51.910Z,100080.22
2023-02-06T09:28:54.815Z,100070.63
2023-02-06T09:32:56.793Z,100079.88
2023-02-06T09:36:58.845Z,100079.53
2023-02-06T09:41:02.449Z,100069.81
2023-02-06T09:45:13.991Z,100070.44
2023-02-06T09:49:21.813Z,100072.53
2023-02-06T09:53:26.176Z,100064.25
2023-02-06T09:57:36.257Z,100062.66
2023-02-06T10:01:42.260Z,100056.31
2023-02-06T10:06:03.241Z,100065.34
2023-02-06T10:10:18.139Z,100043.59
2023-02-06T10:14:24.938Z,100038.47
2023-02-06T10:18:45.936Z,100019.78
2023-02-06T10:22:53.089Z,100023.84
2023-02-06T10:26:58.501Z,100018.38
2023-02-06T10:31:00.769Z,100014.56
2023-02-06T10:35:03.539Z,100004.44
2023-02-06T10:39:14.649Z,99993.50
2023-02-06T10:43:32.826Z,99993.00
2023-02-06T10:47:55.156Z,99992.22
2023-02-06T10:52:17.438Z,99989.94
2023-02-06T10:56:22.839Z,99980.34
2023-02-06T11:00:26.321Z,99962.78
2023-02-06T11:04:34.468Z,99980.06
2023-02-06T11:08:41.862Z,99962.22
2023-02-06T11:13:07.136Z,99977.50
2023-02-06T11:17:10.597Z,99951.09
2023-02-06T11:21:13.874Z,99969.50
2023-02-06T11:25:27.907Z,99948.22
2023-02-06T11:29:39.959Z,99968.00
2023-02-06T11:33:47.932Z,99950.75
2023-02-06T11:37:53.099Z,99944.25
2023-02-06T11:41:58.132Z,99932.97
2023-02-06T11:46:26.522Z,99930.63
2023-02-06T11:50:30.924Z,99923.88
2023-02-06T11:54:35.625Z,99928.13
2023-02-06T11:58:37.651Z,99929.78
2023-02-06T12:02:39.773Z,99942.13
2023-02-06T12:06:41.773Z,99927.59
2023-02-06T12:11:01.621Z,99935.38
2023-02-06T12:15:29.439Z,99927.13
2023-02-06T12:19:31.797Z,99925.38
2023-02-06T12:23:36.589Z,99920.22
2023-02-06T12:27:39.682Z,99929.63
2023-02-06T12:31:56.924Z,99920.59
2023-02-06T12:36:15.968Z,99918.25
2023-02-06T12:40:33.325Z,99897.19
2023-02-06T12:44:54.388Z,99904.56
2023-02-06T12:49:03.998Z,99888.25
2023-02-06T12:53:16.672Z,99888.16
2023-02-06T12:57:24.043Z,99895.19
2023-02-06T13:01:40.487Z,99884.22
2023-02-06T13:05:46.933Z,99868.72
2023-02-06T13:09:48.884Z,99871.03
2023-02-06T13:13:58.900Z,99869.16
2023-02-06T13:18:01.030Z,99879.38
2023-02-06T13:22:09.316Z,99865.03
2023-02-06T13:26:11.429Z,99866.19
2023-02-06T13:30:33.357Z,99856.09
2023-02-06T13:34:35.593Z,99857.59
2023-02-06T13:38:38.688Z,99852.50
2023-02-06T13:42:52.138Z,99853.50
2023-02-06T13:47:00.336Z,99849.66
2023-02-06T13:51:05.795Z,99839.09
2023-02-06T13:55:31.469Z,99835.44
2023-02-06T13:59:38.278Z,99835.50
2023-02-06T14:03:44.076Z,99821.63
2023-02-06T14:08:04.934Z,99825.69
2023-02-06T14:12:39.410Z,99822.06
2023-02-06T14:17:01.618Z,99824.72
2023-02-06T14:21:15.038Z,99828.56
2023-02-06T14:25:25.640Z,99836.25
2023-02-06T14:29:33.773Z,99817.69
2023-02-06T14:33:51.498Z,99814.28
2023-02-06T14:38:00.108Z,99807.28
2023-02-06T14:42:06.572Z,99826.66
2023-02-06T14:46:12.640Z,99814.94
2023-02-06T14:50:29.277Z,99822.59
2023-02-06T14:54:38.576Z,99820.63
2023-02-06T14:58:47.337Z,99816.84
2023-02-06T15:03:24.692Z,99806.31
2023-02-06T15:07:34.541Z,99814.66
2023-02-06T15:11:38.787Z,99809.88
2023-02-06T15:15:51.924Z,99808.16
2023-02-06T15:19:54.206Z,99805.66
2023-02-06T15:23:57.592Z,99821.91
2023-02-06T15:28:03.753Z,99815.66
2023-02-06T15:32:18.027Z,99828.75
2023-02-06T15:36:25.098Z,99816.22
2023-02-06T15:40:31.208Z,99828.13
2023-02-06T15:44:37.445Z,99802.78
2023-02-06T15:48:39.958Z,99807.72
2023-02-06T15:52:47.288Z,99817.63
2023-02-06T15:57:12.241Z,99835.72
2023-02-06T16:01:19.370Z,99824.22
2023-02-06T16:05:47.951Z,99815.97
2023-02-06T16:09:55.269Z,99822.75
2023-02-06T16:13:57.997Z,99832.47
2023-02-06T16:18:01.159Z,99840.06
2023-02-06T16:22:05.103Z,99839.59
2023-02-06T16:26:14.304Z,99838.66
2023-02-06T16:30:22.570Z,99846.97
2023-02-06T16:34:30.604Z,99835.09
2023-02-06T16:38:32.638Z,99846.28
2023-02-06T16:42:39.124Z,99849.44
2023-02-06T16:46:41.721Z,99865.63
2023-02-06T16:50:44.549Z,99872.19
2023-02-06T16:54:47.057Z,99859.78
2023-02-06T16:58:49.212Z,99863.97
2023-02-06T17:02:55.205Z,99882.56
2023-02-06T17:06:57.194Z,99884.25
2023-02-06T17:10:59.099Z,99866.56
2023-02-06T17:15:01.358Z,99877.38
2023-02-06T17:19:03.466Z,99873.97
2023-02-06T17:23:05.791Z,99873.31
2023-02-06T17:27:11.448Z,99881.00
2023-02-06T17:31:13.841Z,99872.50
2023-02-06T17:35:16.435Z,99874.81
2023-02-06T17:39:19.075Z,99877.91
2023-02-06T17:43:21.140Z,99870.03
2023-02-06T17:47:23.163Z,99870.03
2023-02-06T17:51:25.326Z,99865.44
2023-02-06T17:55:27.985Z,99869.41
2023-02-06T17:59:30.038Z,99876.09
2023-02-06T18:03:32.157Z,99872.47
2023-02-06T18:07:34.560Z,99869.81
2023-02-06T18:11:36.650Z,99876.25
2023-02-06T18:15:48.544Z,99873.91
2023-02-06T18:19:50.744Z,99872.75
2023-02-06T18:23:53.300Z,99867.97
2023-02-06T18:27:55.549Z,99859.63
2023-02-06T18:31:57.569Z,99861.25
2023-02-06T18:35:59.540Z,99855.97
2023-02-06T18:40:01.996Z,99858.94
2023-02-06T18:44:05.246Z,99869.25
2023-02-06T18:48:08.678Z,99857.59
2023-02-06T18:52:10.739Z,99860.34
2023-02-06T18:56:12.773Z,99858.97
2023-02-06T19:00:15.721Z,99861.41
2023-02-06T19:04:18.639Z,99850.03
2023-02-06T19:08:21.081Z,99856.06
2023-02-06T19:12:23.166Z,99847.81
2023-02-06T19:16:30.827Z,99843.88
2023-02-06T19:20:33.014Z,99844.06
2023-02-06T19:24:35.558Z,99853.06
2023-02-06T19:28:39.258Z,99858.91
2023-02-06T19:32:42.186Z,99865.50
2023-02-06T19:36:44.373Z,99869.28
2023-02-06T19:40:47.780Z,99899.19
2023-02-06T19:44:56.367Z,99888.91
2023-02-06T19:48:58.587Z,99894.41
2023-02-06T19:53:01.092Z,99895.69
2023-02-06T19:57:04.848Z,99888.44
2023-02-06T20:01:08.611Z,99904.22
2023-02-06T20:05:11.070Z,99905.22
2023-02-06T20:09:16.870Z,99905.84
2023-02-06T20:13:19.007Z,99911.50
2023-02-06T20:17:21.996Z,99915.50
2023-02-06T20:21:28.066Z,99920.97
2023-02-06T20:25:30.528Z,99925.06
2023-02-06T20:29:35.736Z,99919.03
2023-02-06T20:33:38.670Z,99919.72
2023-02-06T20:37:40.947Z,99918.09
2023-02-06T20:41:44.553Z,99919.59
2023-02-06T20:45:46.723Z,99928.69
2023-02-06T20:49:50.547Z,99931.63
2023-02-06T20:53:55.474Z,99940.34
2023-02-06T20:58:00.631Z,99935.75
2023-02-06T21:02:02.713Z,99928.50
2023-02-06T21:06:05.731Z,99925.88
2023-02-06T21:10:10.387Z,99917.88
2023-02-06T21:14:13.027Z,99916.69
2023-02-06T21:18:18.341Z,99925.06
2023-02-06T21:22:20.597Z,99926.56
2023-02-06T21:26:24.033Z,99933.44
2023-02-06T21:30:26.284Z,99925.28
2023-02-06T21:34:28.796Z,99941.69
2023-02-06T21:38:31.035Z,99941.69
2023-02-06T21:42:33.353Z,99937.94
2023-02-06T21:46:35.597Z,99940.09
2023-02-06T21:50:38.989Z,99947.31
2023-02-06T21:54:41.362Z,99944.50
2023-02-06T21:58:44.082Z,99949.63
2023-02-06T22:02:46.652Z,99949.31
2023-02-06T22:06:50.378Z,99948.97
2023-02-06T22:10:53.910Z,99937.84
2023-02-06T22:14:56.080Z,99944.25
2023-02-06T22:18:58.557Z,99941.97
2023-02-06T22:23:00.854Z,99947.22
2023-02-06T22:27:06.506Z,99963.28
2023-02-06T22:31:22.708Z,99956.09
2023-02-06T22:35:25.383Z,99958.84
2023-02-06T22:39:27.517Z,99952.66
2023-02-06T22:43:30.786Z,99962.47
2023-02-06T22:47:34.173Z,99960.19
2023-02-06T22:51:36.837Z,99953.94
2023-02-06T22:55:58.061Z,99956.25
2023-02-06T23:00:00.262Z,99963.97
2023-02-06T23:04:03.995Z,99973.47
2023-02-06T23:08:06.552Z,99974.13
2023-02-06T23:12:11.838Z,99969.38
2023-02-06T23:16:17.188Z,99963.63
2023-02-06T23:20:25.843Z,99971.19
2023-02-06T23:24:29.761Z,99968.38
2023-02-06T23:28:36.842Z,99975.13
2023-02-06T23:32:40.312Z,99971.00
2023-02-06T23:36:42.960Z,99982.16
2023-02-06T23:40:46.221Z,99977.72
2023-02-06T23:44:50.167Z,99972.81
2023-02-06T23:48:53.595Z,99968.06
2023-02-06T23:52:56.032Z,99973.28
2023-02-06T23:57:02.585Z,99958.25
